Time;durP1;ratioP1;P1;durP2;ratioP2;P2;SDS_P1;SDS_P2;PMS_P1;PMS_P2;Temp;Humidity;BMP_temperature;BMP_pressure;BME280_temperature;BME280_humidity;BME280_pressure;Samples;Min_cycle;Max_cycle;Signal;HPM_P1;HPM_P2
2023/04/06 00:01:59;;;;;;;9.07;7.10;;;;;;;;;;5058649;28;20174;-75
2023/04/06 00:04:25;;;;;;;9.50;7.70;;;;;;;;;;5046988;28;20174;-75
2023/04/06 00:06:50;;;;;;;9.57;7.90;;;;;;;;;;5078113;28;20182;-75
2023/04/06 00:09:15;;;;;;;10.63;7.20;;;;;;;;;;5044582;28;20190;-75
2023/04/06 00:11:40;;;;;;;7.43;6.67;;;;;;;;;;5041584;28;20174;-75
2023/04/06 00:14:06;;;;;;;8.27;7.00;;;;;;;;;;5047216;28;20177;-75
2023/04/06 00:16:31;;;;;;;9.20;7.37;;;;;;;;;;5048900;28;20240;-75
2023/04/06 00:18:56;;;;;;;11.27;8.00;;;;;;;;;;5043272;28;20167;-75
2023/04/06 00:21:22;;;;;;;8.63;6.60;;;;;;;;;;5046650;28;20243;-75
2023/04/06 00:23:47;;;;;;;10.93;7.80;;;;;;;;;;5045790;28;20177;-75
2023/04/06 00:26:12;;;;;;;7.77;6.97;;;;;;;;;;5062322;28;20177;-75
2023/04/06 00:28:37;;;;;;;9.37;7.07;;;;;;;;;;5048110;28;20171;-75
2023/04/06 00:31:03;;;;;;;6.97;6.03;;;;;;;;;;5050429;28;20261;-75
2023/04/06 00:33:28;;;;;;;12.03;7.23;;;;;;;;;;5083325;28;20177;-76
2023/04/06 00:35:53;;;;;;;7.70;6.70;;;;;;;;;;5060123;28;20259;-75
2023/04/06 00:38:19;;;;;;;8.13;6.73;;;;;;;;;;5047709;28;20196;-75
2023/04/06 00:40:44;;;;;;;8.17;6.03;;;;;;;;;;5079648;28;20162;-75
2023/04/06 00:43:10;;;;;;;7.80;6.40;;;;;;;;;;5045832;28;20297;-75
2023/04/06 00:45:36;;;;;;;8.57;6.20;;;;;;;;;;5066908;28;20194;-75
2023/04/06 00:48:04;;;;;;;8.93;6.57;;;;;;;;;;5048914;28;20210;-75
2023/04/06 00:50:30;;;;;;;7.73;6.27;;;;;;;;;;5049755;28;20279;-75
2023/04/06 00:52:55;;;;;;;7.40;6.40;;;;;;;;;;5041120;28;20182;-75
2023/04/06 00:55:20;;;;;;;9.60;6.93;;;;;;;;;;5048809;28;20178;-76
2023/04/06 00:57:46;;;;;;;7.20;6.33;;;;;;;;;;5048427;28;20178;-75
2023/04/06 01:00:12;;;;;;;9.00;6.33;;;;;;;;;;5048587;28;20181;-75
2023/04/06 01:02:37;;;;;;;7.87;6.27;;;;;;;;;;5062289;28;20272;-75
2023/04/06 01:05:02;;;;;;;6.50;5.67;;;;;;;;;;5051047;28;20328;-75
2023/04/06 01:07:28;;;;;;;6.57;5.67;;;;;;;;;;5049010;28;20221;-75
2023/04/06 01:09:53;;;;;;;7.03;6.00;;;;;;;;;;5052699;28;20186;-75
2023/04/06 01:12:19;;;;;;;7.83;6.10;;;;;;;;;;5049771;28;20200;-75
2023/04/06 01:14:44;;;;;;;9.57;6.30;;;;;;;;;;5063015;28;20182;-75
2023/04/06 01:17:09;;;;;;;7.63;6.13;;;;;;;;;;5048806;28;20201;-75
2023/04/06 01:19:35;;;;;;;8.83;6.43;;;;;;;;;;5066629;28;20177;-75
2023/04/06 01:22:00;;;;;;;8.40;6.37;;;;;;;;;;5049044;28;20178;-75
2023/04/06 01:24:26;;;;;;;10.17;6.77;;;;;;;;;;5049272;28;20174;-75
2023/04/06 01:26:51;;;;;;;9.77;6.87;;;;;;;;;;5050952;28;20237;-75
2023/04/06 01:29:16;;;;;;;10.73;6.87;;;;;;;;;;5052522;28;20258;-75
2023/04/06 01:31:41;;;;;;;7.50;6.37;;;;;;;;;;5071016;28;20179;-75
2023/04/06 01:34:06;;;;;;;8.13;6.43;;;;;;;;;;5042016;28;20193;-75
2023/04/06 01:36:32;;;;;;;6.87;6.10;;;;;;;;;;5066077;28;20194;-75
2023/04/06 01:38:57;;;;;;;7.57;6.30;;;;;;;;;;5061347;28;20201;-75
2023/04/06 01:41:22;;;;;;;7.63;6.33;;;;;;;;;;5042284;28;20178;-75
2023/04/06 01:43:48;;;;;;;7.60;6.33;;;;;;;;;;5074037;28;20197;-75
2023/04/06 01:46:14;;;;;;;7.87;6.77;;;;;;;;;;5049177;28;20203;-75
2023/04/06 01:48:39;;;;;;;7.30;6.50;;;;;;;;;;5061219;28;20179;-75
2023/04/06 01:51:04;;;;;;;8.50;6.27;;;;;;;;;;5049290;28;20223;-75
2023/04/06 01:53:30;;;;;;;6.60;5.70;;;;;;;;;;5041900;28;20170;-75
2023/04/06 01:55:55;;;;;;;10.27;6.90;;;;;;;;;;5048957;28;20208;-75
2023/04/06 01:58:20;;;;;;;8.80;6.17;;;;;;;;;;5070351;28;20179;-75
2023/04/06 02:00:46;;;;;;;7.43;6.47;;;;;;;;;;5049104;28;20208;-75
2023/04/06 02:03:14;;;;;;;7.70;5.90;;;;;;;;;;5075752;28;20213;-75
2023/04/06 02:05:39;;;;;;;6.50;5.33;;;;;;;;;;5070950;28;20209;-75
2023/04/06 02:08:05;;;;;;;7.33;6.13;;;;;;;;;;5048114;28;20221;-75
2023/04/06 02:10:31;;;;;;;6.03;5.43;;;;;;;;;;5045736;28;20208;-75
2023/04/06 02:12:56;;;;;;;6.77;5.83;;;;;;;;;;5075971;28;20222;-75
2023/04/06 02:15:21;;;;;;;7.37;5.97;;;;;;;;;;5045592;28;20174;-75
2023/04/06 02:17:46;;;;;;;7.70;6.57;;;;;;;;;;5078970;28;20217;-75
2023/04/06 02:20:12;;;;;;;9.70;7.20;;;;;;;;;;5048172;28;20240;-75
2023/04/06 02:22:37;;;;;;;7.43;6.50;;;;;;;;;;5049457;28;20163;-75
2023/04/06 02:25:03;;;;;;;8.20;6.37;;;;;;;;;;5048309;28;20231;-75
2023/04/06 02:27:28;;;;;;;7.90;6.00;;;;;;;;;;5081543;28;20172;-75
2023/04/06 02:29:53;;;;;;;7.10;6.23;;;;;;;;;;5065418;28;20228;-75
2023/04/06 02:32:19;;;;;;;6.97;6.23;;;;;;;;;;5049816;28;20174;-75
2023/04/06 02:34:44;;;;;;;7.03;6.37;;;;;;;;;;5045555;28;20178;-75
2023/04/06 02:37:09;;;;;;;8.57;6.67;;;;;;;;;;5042917;28;20206;-75
2023/04/06 02:39:35;;;;;;;11.37;6.70;;;;;;;;;;5059796;28;20174;-75
2023/04/06 02:42:00;;;;;;;6.63;5.77;;;;;;;;;;5047534;28;20249;-75
2023/04/06 02:44:26;;;;;;;7.97;6.77;;;;;;;;;;5049375;28;20174;-75
2023/04/06 02:46:51;;;;;;;7.30;6.23;;;;;;;;;;5078389;28;20221;-75
2023/04/06 02:49:16;;;;;;;9.53;6.63;;;;;;;;;;5058479;28;20225;-75
2023/04/06 02:51:42;;;;;;;7.67;6.47;;;;;;;;;;5045784;28;20190;-75
2023/04/06 02:54:07;;;;;;;9.70;6.27;;;;;;;;;;5063945;28;20190;-75
2023/04/06 02:56:32;;;;;;;8.63;6.43;;;;;;;;;;5062168;28;20201;-75
2023/04/06 02:58:57;;;;;;;11.37;6.53;;;;;;;;;;5038614;28;20212;-75
2023/04/06 03:01:23;;;;;;;8.27;6.57;;;;;;;;;;5042288;28;20171;-75
2023/04/06 03:03:48;;;;;;;8.03;6.33;;;;;;;;;;5063116;28;20166;-75
2023/04/06 03:06:13;;;;;;;7.93;6.97;;;;;;;;;;5073522;28;20278;-75
2023/04/06 03:08:39;;;;;;;8.83;7.03;;;;;;;;;;5051450;28;20173;-76
2023/04/06 03:11:04;;;;;;;8.43;6.40;;;;;;;;;;5048757;28;20193;-75
2023/04/06 03:13:29;;;;;;;9.73;7.10;;;;;;;;;;5046770;28;20181;-75
2023/04/06 03:15:55;;;;;;;8.53;6.60;;;;;;;;;;5045146;28;20186;-75
2023/04/06 03:18:24;;;;;;;9.53;6.77;;;;;;;;;;5047021;28;20181;-76
2023/04/06 03:20:49;;;;;;;8.87;6.10;;;;;;;;;;5063395;28;20170;-75
2023/04/06 03:23:14;;;;;;;8.73;6.47;;;;;;;;;;5047608;28;20251;-75
2023/04/06 03:25:43;;;;;;;9.37;7.20;;;;;;;;;;5071501;28;20178;-76
2023/04/06 03:28:08;;;;;;;9.33;6.90;;;;;;;;;;5060074;28;20189;-75
2023/04/06 03:30:34;;;;;;;8.30;6.67;;;;;;;;;;5045411;28;20178;-75
2023/04/06 03:33:02;;;;;;;8.57;7.60;;;;;;;;;;5048466;28;20178;-75
2023/04/06 03:35:27;;;;;;;10.60;6.30;;;;;;;;;;5047113;28;20253;-75
2023/04/06 03:37:52;;;;;;;7.30;6.50;;;;;;;;;;5048928;28;20209;-76
2023/04/06 03:40:18;;;;;;;8.90;6.13;;;;;;;;;;5070232;28;20182;-76
2023/04/06 03:42:43;;;;;;;7.40;5.77;;;;;;;;;;5046519;28;20197;-76
2023/04/06 03:45:08;;;;;;;8.23;6.53;;;;;;;;;;5073085;28;20186;-76
2023/04/06 03:47:34;;;;;;;11.43;6.70;;;;;;;;;;5045662;28;20188;-76
2023/04/06 03:49:59;;;;;;;8.97;6.73;;;;;;;;;;5043963;28;20229;-76
2023/04/06 03:52:24;;;;;;;9.07;6.33;;;;;;;;;;5049732;28;20233;-76
2023/04/06 03:54:50;;;;;;;7.67;6.27;;;;;;;;;;5046649;28;20182;-76
2023/04/06 03:57:15;;;;;;;7.20;5.97;;;;;;;;;;5047075;28;20228;-76
2023/04/06 03:59:40;;;;;;;9.07;6.60;;;;;;;;;;5047414;28;20177;-76
2023/04/06 04:02:05;;;;;;;7.87;7.00;;;;;;;;;;5059915;28;20245;-76
2023/04/06 04:04:31;;;;;;;8.00;6.13;;;;;;;;;;5069801;28;20174;-76
2023/04/06 04:06:56;;;;;;;10.17;7.00;;;;;;;;;;5045841;28;20189;-76
2023/04/06 04:09:21;;;;;;;8.50;6.03;;;;;;;;;;5051059;28;20501;-76
2023/04/06 04:11:46;;;;;;;12.93;7.17;;;;;;;;;;5069649;28;20332;-76
2023/04/06 04:14:11;;;;;;;9.23;7.20;;;;;;;;;;5046638;28;20198;-76
2023/04/06 04:16:39;;;;;;;8.13;6.63;;;;;;;;;;5045923;28;20281;-76
2023/04/06 04:19:04;;;;;;;10.93;5.93;;;;;;;;;;5050763;28;20177;-75
2023/04/06 04:21:30;;;;;;;8.67;7.07;;;;;;;;;;5045401;28;20167;-75
2023/04/06 04:23:55;;;;;;;14.17;10.83;;;;;;;;;;5050939;28;20179;-75
2023/04/06 04:26:20;;;;;;;183.80;94.20;;;;;;;;;;5051823;28;20277;-75
2023/04/06 04:28:46;;;;;;;67.57;31.37;;;;;;;;;;5042750;28;20210;-76
2023/04/06 04:31:11;;;;;;;399.00;167.93;;;;;;;;;;5059411;28;20174;-75
2023/04/06 04:33:36;;;;;;;347.17;144.90;;;;;;;;;;5050757;28;20212;-75
2023/04/06 04:36:01;;;;;;;60.57;31.20;;;;;;;;;;5073554;28;20279;-75
2023/04/06 04:38:27;;;;;;;86.93;42.50;;;;;;;;;;5079617;28;20226;-75
2023/04/06 04:40:52;;;;;;;67.77;37.80;;;;;;;;;;5067293;28;20174;-75
2023/04/06 04:43:17;;;;;;;30.43;18.07;;;;;;;;;;5074549;28;20194;-75
2023/04/06 04:45:43;;;;;;;13.77;9.83;;;;;;;;;;5049650;28;20174;-75
2023/04/06 04:48:08;;;;;;;14.23;10.73;;;;;;;;;;5043369;28;20250;-75
2023/04/06 04:50:34;;;;;;;8.93;7.70;;;;;;;;;;5078338;28;20229;-75
2023/04/06 04:52:59;;;;;;;11.47;7.47;;;;;;;;;;5072641;28;20175;-75
2023/04/06 04:55:25;;;;;;;9.43;7.60;;;;;;;;;;5047649;28;20178;-75
2023/04/06 04:57:50;;;;;;;10.47;7.23;;;;;;;;;;5044629;28;20270;-75
2023/04/06 05:00:15;;;;;;;9.87;7.70;;;;;;;;;;5064058;28;20178;-75
2023/04/06 05:02:40;;;;;;;7.70;6.87;;;;;;;;;;5052304;28;20297;-75
2023/04/06 05:05:06;;;;;;;9.47;6.73;;;;;;;;;;5051235;28;20265;-75
2023/04/06 05:07:31;;;;;;;11.17;10.13;;;;;;;;;;5050847;28;20174;-75
2023/04/06 05:09:56;;;;;;;12.97;10.53;;;;;;;;;;5067013;28;20178;-75
2023/04/06 05:12:22;;;;;;;11.50;7.03;;;;;;;;;;5051266;28;20260;-75
2023/04/06 05:14:47;;;;;;;7.47;6.27;;;;;;;;;;5078963;28;20189;-75
2023/04/06 05:17:12;;;;;;;9.43;7.53;;;;;;;;;;5048831;28;20346;-75
2023/04/06 05:19:38;;;;;;;7.87;6.27;;;;;;;;;;5065936;28;20230;-75
2023/04/06 05:22:03;;;;;;;9.57;7.23;;;;;;;;;;5046616;28;20228;-75
2023/04/06 05:24:28;;;;;;;9.93;7.63;;;;;;;;;;5048151;28;20173;-75
2023/04/06 05:26:54;;;;;;;10.00;7.00;;;;;;;;;;5074595;28;20222;-75
2023/04/06 05:29:20;;;;;;;8.97;7.67;;;;;;;;;;5059821;28;20184;-76
2023/04/06 05:31:45;;;;;;;7.50;6.70;;;;;;;;;;5073734;28;20190;-76
2023/04/06 05:34:12;;;;;;;7.97;6.00;;;;;;;;;;5076669;28;20186;-76
2023/04/06 05:36:37;;;;;;;6.87;6.07;;;;;;;;;;5049105;28;20202;-76
2023/04/06 05:39:02;;;;;;;11.23;8.57;;;;;;;;;;5045845;28;20409;-76
2023/04/06 05:41:27;;;;;;;20.77;13.70;;;;;;;;;;5050324;28;20419;-77
2023/04/06 05:43:53;;;;;;;10.30;7.90;;;;;;;;;;5049063;28;20236;-77
2023/04/06 05:46:18;;;;;;;9.20;6.70;;;;;;;;;;5051550;28;20197;-77
2023/04/06 05:48:43;;;;;;;8.23;6.13;;;;;;;;;;5077141;28;20201;-78
2023/04/06 05:51:09;;;;;;;11.73;7.00;;;;;;;;;;5049437;28;20228;-78
2023/04/06 05:53:34;;;;;;;7.40;6.53;;;;;;;;;;5059744;28;20182;-78
2023/04/06 05:56:02;;;;;;;10.17;7.40;;;;;;;;;;5049681;28;20198;-78
2023/04/06 05:58:28;;;;;;;9.03;6.80;;;;;;;;;;5074721;28;20179;-78
2023/04/06 06:00:59;;;;;;;8.03;6.70;;;;;;;;;;5045699;28;20182;-78
2023/04/06 06:03:25;;;;;;;11.47;7.80;;;;;;;;;;5045614;28;20257;-78
2023/04/06 06:05:50;;;;;;;7.93;5.70;;;;;;;;;;5047762;28;20270;-78
2023/04/06 06:08:15;;;;;;;8.27;6.27;;;;;;;;;;5044522;28;20182;-78
2023/04/06 06:10:40;;;;;;;8.53;7.47;;;;;;;;;;5062328;28;20202;-78
2023/04/06 06:13:06;;;;;;;10.67;7.60;;;;;;;;;;5046854;28;20186;-78
2023/04/06 06:15:31;;;;;;;6.90;5.30;;;;;;;;;;5071090;28;20245;-78
2023/04/06 06:18:00;;;;;;;6.60;5.90;;;;;;;;;;5042649;28;20186;-78
2023/04/06 06:20:26;;;;;;;6.97;5.17;;;;;;;;;;5044149;28;20183;-78
2023/04/06 06:22:51;;;;;;;6.53;5.77;;;;;;;;;;5043622;28;20192;-78
2023/04/06 06:25:16;;;;;;;8.73;7.00;;;;;;;;;;5062322;28;20208;-79
2023/04/06 06:27:42;;;;;;;7.90;6.00;;;;;;;;;;5066051;28;20264;-79
2023/04/06 06:30:08;;;;;;;10.63;7.00;;;;;;;;;;5074060;28;20222;-79
2023/04/06 06:32:33;;;;;;;7.90;6.93;;;;;;;;;;5049426;28;20182;-80
2023/04/06 06:34:59;;;;;;;12.57;8.60;;;;;;;;;;5048720;28;20181;-80
2023/04/06 06:37:24;;;;;;;11.73;6.30;;;;;;;;;;5047907;28;20273;-79
2023/04/06 06:39:49;;;;;;;7.50;6.30;;;;;;;;;;5044703;28;20182;-79
2023/04/06 06:42:14;;;;;;;7.80;6.90;;;;;;;;;;5051311;28;20208;-78
2023/04/06 06:44:40;;;;;;;7.90;6.47;;;;;;;;;;5072887;28;20186;-77
2023/04/06 06:47:05;;;;;;;7.27;6.33;;;;;;;;;;5078173;28;20193;-76
2023/04/06 06:49:30;;;;;;;10.27;7.27;;;;;;;;;;5047998;28;20236;-76
2023/04/06 06:51:55;;;;;;;8.07;6.80;;;;;;;;;;5060453;28;20189;-76
2023/04/06 06:54:21;;;;;;;8.17;6.03;;;;;;;;;;5070469;28;20194;-77
2023/04/06 06:56:46;;;;;;;7.10;6.30;;;;;;;;;;5067851;28;20213;-76
2023/04/06 06:59:11;;;;;;;7.53;6.73;;;;;;;;;;5040984;28;20196;-76
2023/04/06 07:01:40;;;;;;;8.83;6.17;;;;;;;;;;5060256;28;20205;-76
2023/04/06 07:04:05;;;;;;;8.07;6.40;;;;;;;;;;5046893;28;20212;-76
2023/04/06 07:06:30;;;;;;;8.87;6.40;;;;;;;;;;5047473;28;20210;-76
2023/04/06 07:08:55;;;;;;;7.10;6.17;;;;;;;;;;5047823;28;20185;-76
2023/04/06 07:11:20;;;;;;;12.70;6.73;;;;;;;;;;5041801;28;20178;-76
2023/04/06 07:13:46;;;;;;;6.30;5.70;;;;;;;;;;5046761;28;20227;-75
2023/04/06 07:16:11;;;;;;;10.97;6.27;;;;;;;;;;5051390;28;20194;-75
2023/04/06 07:18:36;;;;;;;11.17;7.57;;;;;;;;;;5047177;28;20165;-75
2023/04/06 07:21:02;;;;;;;7.13;6.10;;;;;;;;;;5037423;28;20186;-75
2023/04/06 07:23:27;;;;;;;8.90;5.97;;;;;;;;;;5047592;28;20231;-75
2023/04/06 07:25:53;;;;;;;10.17;7.70;;;;;;;;;;5061864;28;20332;-75
2023/04/06 07:28:19;;;;;;;7.00;5.93;;;;;;;;;;5043040;28;20259;-75
2023/04/06 07:30:44;;;;;;;7.13;5.60;;;;;;;;;;5069779;28;20250;-75
2023/04/06 07:33:09;;;;;;;7.73;6.03;;;;;;;;;;5052037;28;20186;-75
2023/04/06 07:35:36;;;;;;;9.67;6.63;;;;;;;;;;5042130;28;20205;-75
2023/04/06 07:38:01;;;;;;;7.83;6.40;;;;;;;;;;5047493;28;20212;-75
2023/04/06 07:40:27;;;;;;;7.97;6.13;;;;;;;;;;5070283;28;20217;-75
2023/04/06 07:42:52;;;;;;;7.73;6.10;;;;;;;;;;5050723;28;20314;-75
2023/04/06 07:45:17;;;;;;;6.73;5.53;;;;;;;;;;5046004;28;20177;-75
2023/04/06 07:47:43;;;;;;;6.10;5.03;;;;;;;;;;5049663;28;20241;-75
2023/04/06 07:50:08;;;;;;;6.97;5.27;;;;;;;;;;5047911;28;20225;-75
2023/04/06 07:52:33;;;;;;;7.47;5.10;;;;;;;;;;5054892;28;20200;-75
2023/04/06 07:54:59;;;;;;;9.40;5.80;;;;;;;;;;5048437;28;20256;-75
2023/04/06 07:57:24;;;;;;;9.80;7.43;;;;;;;;;;5067992;28;20229;-75
2023/04/06 07:59:50;;;;;;;8.87;5.93;;;;;;;;;;5045365;28;20182;-75
2023/04/06 08:02:15;;;;;;;7.67;6.20;;;;;;;;;;5045741;28;20186;-75
2023/04/06 08:04:40;;;;;;;7.10;5.60;;;;;;;;;;5050844;28;20170;-75
2023/04/06 08:07:06;;;;;;;7.43;5.87;;;;;;;;;;5050836;28;20183;-75
2023/04/06 08:09:31;;;;;;;5.87;5.37;;;;;;;;;;5043350;28;20174;-75
2023/04/06 08:11:57;;;;;;;7.27;5.73;;;;;;;;;;5048703;28;20222;-75
2023/04/06 08:14:22;;;;;;;8.60;6.57;;;;;;;;;;5052205;28;20178;-75
2023/04/06 08:16:47;;;;;;;6.80;5.97;;;;;;;;;;5045841;28;20257;-75
2023/04/06 08:19:12;;;;;;;9.50;6.03;;;;;;;;;;5050874;28;20172;-75
2023/04/06 08:21:39;;;;;;;7.70;5.90;;;;;;;;;;5052729;28;20162;-75
2023/04/06 08:24:05;;;;;;;6.67;5.77;;;;;;;;;;5053961;28;20166;-75
2023/04/06 08:26:31;;;;;;;6.30;5.40;;;;;;;;;;5066862;28;20228;-75
2023/04/06 08:28:56;;;;;;;11.53;5.63;;;;;;;;;;5052041;28;20182;-75
2023/04/06 08:31:21;;;;;;;6.13;5.20;;;;;;;;;;5058563;28;20181;-75
2023/04/06 08:33:46;;;;;;;6.43;5.67;;;;;;;;;;5063462;28;20189;-75
2023/04/06 08:36:13;;;;;;;7.70;5.70;;;;;;;;;;5040730;28;20204;-75
2023/04/06 08:38:38;;;;;;;7.20;5.90;;;;;;;;;;5047488;28;20435;-75
2023/04/06 08:41:08;;;;;;;5.83;5.23;;;;;;;;;;5058513;28;20174;-75
2023/04/06 08:43:35;;;;;;;6.77;5.67;;;;;;;;;;5050826;28;20186;-75
2023/04/06 08:46:01;;;;;;;7.20;5.87;;;;;;;;;;5042705;28;20212;-75
2023/04/06 08:48:26;;;;;;;10.60;7.37;;;;;;;;;;5078669;28;20221;-75
2023/04/06 08:50:52;;;;;;;11.50;7.40;;;;;;;;;;5052766;28;20238;-75
2023/04/06 08:53:17;;;;;;;11.70;8.63;;;;;;;;;;5078578;28;20337;-75
2023/04/06 08:55:43;;;;;;;10.27;8.87;;;;;;;;;;5050274;28;20171;-75
2023/04/06 08:58:08;;;;;;;10.37;7.87;;;;;;;;;;5045155;28;20174;-74
2023/04/06 09:00:37;;;;;;;8.30;7.40;;;;;;;;;;5066629;28;20166;-75
2023/04/06 09:03:03;;;;;;;9.07;6.40;;;;;;;;;;5076498;28;20173;-75
2023/04/06 09:05:28;;;;;;;7.10;6.03;;;;;;;;;;5051017;28;20178;-75
2023/04/06 09:07:54;;;;;;;7.27;6.57;;;;;;;;;;5037099;28;20186;-75
2023/04/06 09:10:24;;;;;;;9.07;7.37;;;;;;;;;;5043055;28;20201;-75
2023/04/06 09:12:50;;;;;;;8.80;6.87;;;;;;;;;;5065140;28;20261;-75
2023/04/06 09:15:19;;;;;;;9.20;7.03;;;;;;;;;;5046701;28;20243;-75
2023/04/06 09:17:46;;;;;;;8.37;7.50;;;;;;;;;;5046910;28;20209;-75
2023/04/06 09:20:11;;;;;;;6.67;6.07;;;;;;;;;;5050430;28;20176;-75
2023/04/06 09:22:37;;;;;;;7.90;6.97;;;;;;;;;;5064300;28;20434;-75
2023/04/06 09:25:02;;;;;;;7.97;6.57;;;;;;;;;;5065344;28;20181;-75
2023/04/06 09:27:35;;;;;;;8.10;7.30;;;;;;;;;;5082381;28;20184;-75
2023/04/06 09:30:03;;;;;;;8.30;6.87;;;;;;;;;;5046780;28;20176;-75
2023/04/06 09:32:29;;;;;;;11.67;7.90;;;;;;;;;;5050031;28;20197;-75
2023/04/06 09:34:54;;;;;;;8.40;7.10;;;;;;;;;;5049730;28;20176;-75
2023/04/06 09:37:19;;;;;;;8.67;7.57;;;;;;;;;;5049105;28;20212;-75
2023/04/06 09:39:45;;;;;;;6.93;6.17;;;;;;;;;;5041818;28;20181;-75
2023/04/06 09:42:12;;;;;;;9.83;7.30;;;;;;;;;;5042960;28;20205;-75
2023/04/06 09:44:37;;;;;;;8.37;6.80;;;;;;;;;;5048816;28;20201;-75
2023/04/06 09:47:06;;;;;;;14.10;7.00;;;;;;;;;;5049778;28;20211;-75
2023/04/06 09:49:33;;;;;;;7.13;6.23;;;;;;;;;;5046400;28;20241;-75
2023/04/06 09:51:59;;;;;;;7.97;7.17;;;;;;;;;;5064840;28;20217;-75
2023/04/06 09:54:26;;;;;;;12.47;6.20;;;;;;;;;;5073458;28;20186;-75
2023/04/06 09:56:58;;;;;;;7.00;6.30;;;;;;;;;;5053856;28;20209;-75
2023/04/06 09:59:23;;;;;;;10.27;6.87;;;;;;;;;;5041403;28;20286;-75
2023/04/06 10:01:50;;;;;;;9.40;6.53;;;;;;;;;;5078219;28;20257;-76
2023/04/06 10:04:28;;;;;;;8.83;7.53;;;;;;;;;;5045995;28;20175;-75
2023/04/06 10:06:55;;;;;;;10.87;6.33;;;;;;;;;;5059836;28;20182;-75
2023/04/06 10:09:24;;;;;;;9.33;7.57;;;;;;;;;;5048476;28;20192;-75
2023/04/06 10:11:50;;;;;;;8.47;6.07;;;;;;;;;;5062584;28;20179;-76
2023/04/06 10:14:15;;;;;;;8.03;7.23;;;;;;;;;;5047733;28;20320;-75
2023/04/06 10:16:44;;;;;;;7.73;5.73;;;;;;;;;;5058553;28;20232;-75
2023/04/06 10:19:14;;;;;;;7.80;7.00;;;;;;;;;;5046472;28;20174;-75
2023/04/06 10:21:41;;;;;;;7.90;6.20;;;;;;;;;;5064838;28;20178;-75
2023/04/06 10:24:10;;;;;;;6.83;6.13;;;;;;;;;;5064773;28;20174;-75
2023/04/06 10:26:35;;;;;;;6.93;6.13;;;;;;;;;;5042451;28;20311;-75
2023/04/06 10:29:04;;;;;;;8.70;5.80;;;;;;;;;;5064462;28;20273;-75
2023/04/06 10:31:29;;;;;;;7.77;6.93;;;;;;;;;;5075080;28;20170;-75
2023/04/06 10:33:56;;;;;;;6.47;5.60;;;;;;;;;;5065197;28;20183;-75
2023/04/06 10:36:22;;;;;;;13.50;10.57;;;;;;;;;;5042188;28;20191;-75
2023/04/06 10:38:53;;;;;;;9.50;7.83;;;;;;;;;;5053415;28;20191;-75
2023/04/06 10:41:18;;;;;;;9.93;6.83;;;;;;;;;;5055125;28;20182;-75
2023/04/06 10:43:43;;;;;;;10.90;8.90;;;;;;;;;;5058941;28;20186;-75
2023/04/06 10:46:09;;;;;;;7.50;5.43;;;;;;;;;;5044205;28;20184;-75
2023/04/06 10:48:38;;;;;;;8.20;7.50;;;;;;;;;;5058500;28;20187;-75
2023/04/06 10:51:07;;;;;;;8.13;5.07;;;;;;;;;;5044415;28;20234;-76
2023/04/06 10:53:32;;;;;;;6.60;5.90;;;;;;;;;;5068121;28;20177;-75
2023/04/06 10:55:58;;;;;;;7.93;7.23;;;;;;;;;;5043043;28;20211;-75
2023/04/06 10:58:27;;;;;;;10.73;9.63;;;;;;;;;;5046198;28;20260;-75
2023/04/06 11:00:53;;;;;;;8.33;6.67;;;;;;;;;;5048371;28;20214;-76
2023/04/06 11:03:18;;;;;;;6.63;5.83;;;;;;;;;;5044550;28;20624;-76
2023/04/06 11:05:44;;;;;;;8.43;5.80;;;;;;;;;;5048837;28;20224;-75
2023/04/06 11:08:09;;;;;;;7.77;6.30;;;;;;;;;;5048513;28;20228;-76
2023/04/06 11:10:35;;;;;;;6.93;6.30;;;;;;;;;;5048025;28;20183;-75
2023/04/06 11:13:00;;;;;;;11.17;6.43;;;;;;;;;;5080167;28;20206;-76
2023/04/06 11:15:26;;;;;;;8.40;6.10;;;;;;;;;;5049288;28;20183;-75
2023/04/06 11:17:51;;;;;;;7.23;6.53;;;;;;;;;;5080042;28;20214;-76
2023/04/06 11:20:17;;;;;;;7.70;6.00;;;;;;;;;;5047078;28;20171;-75
2023/04/06 11:22:49;;;;;;;8.47;6.97;;;;;;;;;;5071962;28;20199;-76
2023/04/06 11:25:16;;;;;;;8.13;5.63;;;;;;;;;;5045843;28;20180;-76
2023/04/06 11:27:42;;;;;;;6.80;4.50;;;;;;;;;;5066249;28;20322;-75
2023/04/06 11:30:08;;;;;;;8.00;6.23;;;;;;;;;;5048704;28;20263;-76
2023/04/06 11:32:39;;;;;;;6.73;6.03;;;;;;;;;;5048031;28;20178;-74
2023/04/06 11:35:05;;;;;;;5.97;5.37;;;;;;;;;;5042064;28;20183;-73
2023/04/06 11:37:30;;;;;;;6.33;5.40;;;;;;;;;;5072439;28;20203;-74
2023/04/06 11:39:56;;;;;;;8.03;6.17;;;;;;;;;;5047556;28;20182;-74
2023/04/06 11:42:23;;;;;;;6.67;5.97;;;;;;;;;;5046611;28;20296;-74
2023/04/06 11:44:50;;;;;;;6.40;5.80;;;;;;;;;;5042259;28;20181;-74
2023/04/06 11:47:16;;;;;;;5.67;5.17;;;;;;;;;;5072801;28;20195;-74
2023/04/06 11:49:42;;;;;;;6.00;5.40;;;;;;;;;;5074217;28;20223;-74
2023/04/06 11:52:22;;;;;;;6.33;5.23;;;;;;;;;;5059076;28;20207;-74
2023/04/06 11:54:47;;;;;;;7.53;5.50;;;;;;;;;;5041254;28;20174;-74
2023/04/06 11:57:13;;;;;;;8.00;6.33;;;;;;;;;;5051402;28;20280;-74
2023/04/06 11:59:38;;;;;;;6.73;6.13;;;;;;;;;;5073513;28;20258;-74
2023/04/06 12:02:03;;;;;;;9.07;5.73;;;;;;;;;;5045479;28;20181;-74
2023/04/06 12:04:29;;;;;;;7.33;5.60;;;;;;;;;;5041605;28;20284;-74
2023/04/06 12:06:54;;;;;;;7.43;6.53;;;;;;;;;;5074792;28;20255;-73
2023/04/06 12:09:20;;;;;;;6.63;6.03;;;;;;;;;;5045739;28;20272;-74
2023/04/06 12:11:45;;;;;;;6.93;5.73;;;;;;;;;;5048293;28;20181;-73
2023/04/06 12:14:11;;;;;;;6.77;5.90;;;;;;;;;;5045019;28;20181;-74
2023/04/06 12:16:36;;;;;;;7.50;6.70;;;;;;;;;;5044256;28;20196;-74
2023/04/06 12:19:01;;;;;;;9.20;6.17;;;;;;;;;;5046402;28;20211;-74
2023/04/06 12:21:28;;;;;;;6.40;5.53;;;;;;;;;;5044829;28;20206;-74
2023/04/06 12:23:53;;;;;;;8.17;6.20;;;;;;;;;;5041208;28;20204;-74
2023/04/06 12:26:18;;;;;;;7.77;6.50;;;;;;;;;;5045566;28;20209;-74
2023/04/06 12:28:44;;;;;;;6.07;5.50;;;;;;;;;;5048909;28;20188;-74
2023/04/06 12:31:16;;;;;;;8.93;6.50;;;;;;;;;;5050735;28;20192;-74
2023/04/06 12:33:42;;;;;;;7.30;6.60;;;;;;;;;;5050706;28;20184;-74
2023/04/06 12:36:18;;;;;;;7.60;6.80;;;;;;;;;;5067104;28;20208;-74
2023/04/06 12:38:45;;;;;;;5.93;5.33;;;;;;;;;;5067607;28;20272;-74
2023/04/06 12:41:10;;;;;;;8.90;6.40;;;;;;;;;;5052258;28;20177;-74
2023/04/06 12:43:36;;;;;;;5.90;5.40;;;;;;;;;;5051292;28;20238;-74
2023/04/06 12:46:01;;;;;;;7.47;6.27;;;;;;;;;;5051117;28;20177;-74
2023/04/06 12:48:27;;;;;;;6.10;5.57;;;;;;;;;;5048956;28;20208;-74
2023/04/06 12:50:59;;;;;;;7.37;5.97;;;;;;;;;;5048268;28;20331;-74
2023/04/06 12:53:24;;;;;;;7.10;5.90;;;;;;;;;;5051560;28;20180;-74
2023/04/06 12:55:50;;;;;;;8.50;6.43;;;;;;;;;;5073383;28;20192;-75
2023/04/06 12:58:16;;;;;;;5.73;5.23;;;;;;;;;;5047601;28;20184;-74
2023/04/06 13:00:41;;;;;;;7.23;5.87;;;;;;;;;;5066161;28;20174;-74
2023/04/06 13:03:07;;;;;;;10.50;5.90;;;;;;;;;;5057280;28;20179;-75
2023/04/06 13:05:32;;;;;;;6.70;6.07;;;;;;;;;;5066846;28;20190;-74
2023/04/06 13:07:57;;;;;;;6.23;5.63;;;;;;;;;;5050664;28;20173;-74
2023/04/06 13:10:23;;;;;;;11.37;5.90;;;;;;;;;;5073294;28;20183;-74
2023/04/06 13:12:48;;;;;;;8.87;6.50;;;;;;;;;;5062201;28;20182;-75
2023/04/06 13:15:14;;;;;;;8.50;7.60;;;;;;;;;;5043019;28;20248;-75
2023/04/06 13:17:39;;;;;;;8.27;7.47;;;;;;;;;;5050085;28;20202;-75
2023/04/06 13:20:05;;;;;;;11.60;7.37;;;;;;;;;;5049097;28;20183;-75
2023/04/06 13:22:31;;;;;;;6.77;5.97;;;;;;;;;;5045375;28;20181;-75
2023/04/06 13:24:56;;;;;;;5.80;5.20;;;;;;;;;;5048472;28;20181;-75
2023/04/06 13:27:21;;;;;;;5.93;5.43;;;;;;;;;;5041463;28;20214;-75
2023/04/06 13:29:46;;;;;;;6.40;5.80;;;;;;;;;;5062065;28;20185;-75
2023/04/06 13:32:12;;;;;;;5.70;5.20;;;;;;;;;;5043781;28;20183;-75
2023/04/06 13:34:37;;;;;;;6.53;5.23;;;;;;;;;;5048645;28;20185;-75
2023/04/06 13:37:02;;;;;;;6.50;5.40;;;;;;;;;;5045390;28;20229;-74
2023/04/06 13:39:28;;;;;;;5.87;5.20;;;;;;;;;;5046967;28;20171;-75
2023/04/06 13:41:55;;;;;;;7.00;6.00;;;;;;;;;;5043148;28;20186;-75
2023/04/06 13:44:21;;;;;;;5.30;4.80;;;;;;;;;;5048975;28;20227;-74
2023/04/06 13:46:46;;;;;;;6.07;5.17;;;;;;;;;;5048502;28;20182;-74
2023/04/06 13:49:11;;;;;;;5.10;4.60;;;;;;;;;;5046092;28;20226;-75
2023/04/06 13:51:36;;;;;;;6.70;5.70;;;;;;;;;;5064331;28;20200;-75
2023/04/06 13:54:02;;;;;;;6.67;6.07;;;;;;;;;;5045480;28;20179;-75
2023/04/06 13:56:27;;;;;;;6.70;5.57;;;;;;;;;;5048684;28;20197;-74
2023/04/06 13:58:56;;;;;;;5.90;5.30;;;;;;;;;;5051266;28;20184;-74
2023/04/06 14:01:21;;;;;;;6.10;5.50;;;;;;;;;;5073736;28;20186;-75
2023/04/06 14:03:48;;;;;;;5.80;5.30;;;;;;;;;;5040253;28;20210;-74
2023/04/06 14:06:13;;;;;;;7.20;6.60;;;;;;;;;;5079692;28;20178;-75
2023/04/06 14:08:39;;;;;;;6.27;5.23;;;;;;;;;;5062608;28;20200;-74
2023/04/06 14:11:04;;;;;;;6.77;6.07;;;;;;;;;;5041530;28;20208;-75
2023/04/06 14:13:29;;;;;;;6.70;5.80;;;;;;;;;;5075291;28;20230;-75
2023/04/06 14:15:57;;;;;;;5.70;5.20;;;;;;;;;;5043286;28;20182;-75
2023/04/06 14:18:23;;;;;;;6.73;5.20;;;;;;;;;;5048186;28;20182;-74
2023/04/06 14:20:55;;;;;;;5.80;4.60;;;;;;;;;;5071521;28;20189;-75
2023/04/06 14:23:20;;;;;;;5.10;4.50;;;;;;;;;;5075964;28;20164;-74
2023/04/06 14:25:46;;;;;;;5.23;4.00;;;;;;;;;;5061487;28;20173;-74
2023/04/06 14:28:11;;;;;;;5.50;5.00;;;;;;;;;;5062446;28;20195;-74
2023/04/06 14:30:37;;;;;;;6.27;4.73;;;;;;;;;;5047597;28;20179;-74
2023/04/06 14:33:03;;;;;;;14.33;10.10;;;;;;;;;;5072112;28;20272;-75